sensor_id;sensor_type;location;lat;lon;timestamp;P1;durP1;ratioP1;P2;durP2;ratioP2
15693;SDS011;7947;48.834;9.132;2023-05-10T00:00:31;0.08;;;0.08;;
15693;SDS011;7947;48.834;9.132;2023-05-10T00:03:34;1.55;;;0.13;;
15693;SDS011;7947;48.834;9.132;2023-05-10T00:06:37;0.10;;;0.10;;
15693;SDS011;7947;48.834;9.132;2023-05-10T00:09:40;0.10;;;0.10;;
15693;SDS011;7947;48.834;9.132;2023-05-10T00:12:43;0.20;;;0.17;;
15693;SDS011;7947;48.834;9.132;2023-05-10T00:15:47;0.10;;;0.10;;
15693;SDS011;7947;48.834;9.132;2023-05-10T00:18:49;0.50;;;0.20;;
15693;SDS011;7947;48.834;9.132;2023-05-10T00:21:52;0.22;;;0.13;;
15693;SDS011;7947;48.834;9.132;2023-05-10T00:24:55;0.00;;;0.00;;
15693;SDS011;7947;48.834;9.132;2023-05-10T00:27:58;0.00;;;0.00;;
15693;SDS011;7947;48.834;9.132;2023-05-10T00:31:03;0.20;;;0.15;;
15693;SDS011;7947;48.834;9.132;2023-05-10T00:34:06;1.25;;;0.10;;
15693;SDS011;7947;48.834;9.132;2023-05-10T00:37:09;0.10;;;0.10;;
15693;SDS011;7947;48.834;9.132;2023-05-10T00:40:12;0.05;;;0.05;;
15693;SDS011;7947;48.834;9.132;2023-05-10T00:43:15;0.10;;;0.10;;
15693;SDS011;7947;48.834;9.132;2023-05-10T00:46:20;0.10;;;0.10;;
15693;SDS011;7947;48.834;9.132;2023-05-10T00:49:23;0.40;;;0.40;;
15693;SDS011;7947;48.834;9.132;2023-05-10T00:52:25;0.10;;;0.10;;
15693;SDS011;7947;48.834;9.132;2023-05-10T00:55:28;0.20;;;0.20;;
15693;SDS011;7947;48.834;9.132;2023-05-10T00:58:32;0.45;;;0.10;;
15693;SDS011;7947;48.834;9.132;2023-05-10T01:01:36;0.10;;;0.10;;
15693;SDS011;7947;48.834;9.132;2023-05-10T01:04:40;0.38;;;0.32;;
15693;SDS011;7947;48.834;9.132;2023-05-10T01:07:43;0.17;;;0.10;;
15693;SDS011;7947;48.834;9.132;2023-05-10T01:10:45;0.08;;;0.08;;
15693;SDS011;7947;48.834;9.132;2023-05-10T01:13:51;0.17;;;0.10;;
15693;SDS011;7947;48.834;9.132;2023-05-10T01:16:59;0.15;;;0.15;;
15693;SDS011;7947;48.834;9.132;2023-05-10T01:20:03;0.30;;;0.30;;
15693;SDS011;7947;48.834;9.132;2023-05-10T01:23:18;0.10;;;0.10;;
15693;SDS011;7947;48.834;9.132;2023-05-10T01:26:46;0.40;;;0.20;;
15693;SDS011;7947;48.834;9.132;2023-05-10T01:33:40;0.38;;;0.25;;
15693;SDS011;7947;48.834;9.132;2023-05-10T01:36:50;0.10;;;0.10;;
15693;SDS011;7947;48.834;9.132;2023-05-10T01:39:58;0.50;;;0.47;;
15693;SDS011;7947;48.834;9.132;2023-05-10T01:43:11;0.30;;;0.30;;
15693;SDS011;7947;48.834;9.132;2023-05-10T01:46:30;0.40;;;0.30;;
15693;SDS011;7947;48.834;9.132;2023-05-10T01:49:39;0.20;;;0.20;;
15693;SDS011;7947;48.834;9.132;2023-05-10T01:52:47;0.77;;;0.25;;
15693;SDS011;7947;48.834;9.132;2023-05-10T01:55:54;0.25;;;0.25;;
15693;SDS011;7947;48.834;9.132;2023-05-10T01:58:58;1.48;;;0.38;;
15693;SDS011;7947;48.834;9.132;2023-05-10T02:02:03;2.80;;;0.40;;
15693;SDS011;7947;48.834;9.132;2023-05-10T02:05:09;0.30;;;0.30;;
15693;SDS011;7947;48.834;9.132;2023-05-10T02:08:15;0.10;;;0.10;;
15693;SDS011;7947;48.834;9.132;2023-05-10T02:11:20;0.77;;;0.30;;
15693;SDS011;7947;48.834;9.132;2023-05-10T02:14:24;0.32;;;0.32;;
15693;SDS011;7947;48.834;9.132;2023-05-10T02:17:28;0.30;;;0.30;;
15693;SDS011;7947;48.834;9.132;2023-05-10T02:20:35;0.40;;;0.40;;
15693;SDS011;7947;48.834;9.132;2023-05-10T02:23:39;0.30;;;0.30;;
15693;SDS011;7947;48.834;9.132;2023-05-10T02:26:43;1.02;;;0.20;;
15693;SDS011;7947;48.834;9.132;2023-05-10T02:29:47;0.43;;;0.40;;
15693;SDS011;7947;48.834;9.132;2023-05-10T02:32:52;0.30;;;0.30;;
15693;SDS011;7947;48.834;9.132;2023-05-10T02:35:57;0.70;;;0.30;;
15693;SDS011;7947;48.834;9.132;2023-05-10T02:39:00;0.35;;;0.35;;
15693;SDS011;7947;48.834;9.132;2023-05-10T02:42:04;0.28;;;0.28;;
15693;SDS011;7947;48.834;9.132;2023-05-10T02:45:10;0.38;;;0.30;;
15693;SDS011;7947;48.834;9.132;2023-05-10T02:48:15;0.68;;;0.40;;
15693;SDS011;7947;48.834;9.132;2023-05-10T02:51:19;0.75;;;0.32;;
15693;SDS011;7947;48.834;9.132;2023-05-10T02:54:29;0.45;;;0.40;;
15693;SDS011;7947;48.834;9.132;2023-05-10T02:57:34;0.75;;;0.75;;
15693;SDS011;7947;48.834;9.132;2023-05-10T03:00:43;0.68;;;0.50;;
15693;SDS011;7947;48.834;9.132;2023-05-10T03:03:46;0.85;;;0.40;;
15693;SDS011;7947;48.834;9.132;2023-05-10T03:06:50;0.40;;;0.40;;
15693;SDS011;7947;48.834;9.132;2023-05-10T03:09:53;1.30;;;0.60;;
15693;SDS011;7947;48.834;9.132;2023-05-10T03:12:58;1.40;;;1.30;;
15693;SDS011;7947;48.834;9.132;2023-05-10T03:16:09;1.33;;;1.05;;
15693;SDS011;7947;48.834;9.132;2023-05-10T03:19:17;1.52;;;1.00;;
15693;SDS011;7947;48.834;9.132;2023-05-10T03:22:29;1.25;;;1.15;;
15693;SDS011;7947;48.834;9.132;2023-05-10T03:25:34;1.25;;;1.10;;
15693;SDS011;7947;48.834;9.132;2023-05-10T03:28:37;1.95;;;1.17;;
15693;SDS011;7947;48.834;9.132;2023-05-10T03:31:41;1.42;;;1.30;;
15693;SDS011;7947;48.834;9.132;2023-05-10T03:34:44;1.30;;;1.20;;
15693;SDS011;7947;48.834;9.132;2023-05-10T03:37:48;1.38;;;1.00;;
15693;SDS011;7947;48.834;9.132;2023-05-10T03:40:51;3.13;;;2.33;;
15693;SDS011;7947;48.834;9.132;2023-05-10T03:43:54;2.42;;;1.60;;
15693;SDS011;7947;48.834;9.132;2023-05-10T03:46:57;2.58;;;1.77;;
15693;SDS011;7947;48.834;9.132;2023-05-10T03:50:00;1.90;;;1.65;;
15693;SDS011;7947;48.834;9.132;2023-05-10T03:53:05;2.40;;;1.77;;
15693;SDS011;7947;48.834;9.132;2023-05-10T03:56:07;1.92;;;1.63;;
15693;SDS011;7947;48.834;9.132;2023-05-10T03:59:10;1.33;;;1.20;;
15693;SDS011;7947;48.834;9.132;2023-05-10T04:02:13;1.48;;;1.25;;
15693;SDS011;7947;48.834;9.132;2023-05-10T04:05:16;1.42;;;1.08;;
15693;SDS011;7947;48.834;9.132;2023-05-10T04:08:20;1.10;;;0.93;;
15693;SDS011;7947;48.834;9.132;2023-05-10T04:11:23;1.25;;;0.93;;
15693;SDS011;7947;48.834;9.132;2023-05-10T04:14:26;1.25;;;1.08;;
15693;SDS011;7947;48.834;9.132;2023-05-10T04:17:28;2.00;;;0.90;;
15693;SDS011;7947;48.834;9.132;2023-05-10T04:20:32;1.52;;;1.02;;
15693;SDS011;7947;48.834;9.132;2023-05-10T04:23:36;1.10;;;0.93;;
15693;SDS011;7947;48.834;9.132;2023-05-10T04:26:39;1.95;;;0.93;;
15693;SDS011;7947;48.834;9.132;2023-05-10T04:29:42;0.75;;;0.75;;
15693;SDS011;7947;48.834;9.132;2023-05-10T04:32:45;0.70;;;0.70;;
15693;SDS011;7947;48.834;9.132;2023-05-10T04:35:48;0.60;;;0.60;;
15693;SDS011;7947;48.834;9.132;2023-05-10T04:38:52;1.55;;;0.60;;
15693;SDS011;7947;48.834;9.132;2023-05-10T04:41:55;0.77;;;0.77;;
15693;SDS011;7947;48.834;9.132;2023-05-10T04:44:57;0.60;;;0.60;;
15693;SDS011;7947;48.834;9.132;2023-05-10T04:48:00;2.03;;;0.50;;
15693;SDS011;7947;48.834;9.132;2023-05-10T04:51:03;0.77;;;0.65;;
15693;SDS011;7947;48.834;9.132;2023-05-10T04:54:09;1.15;;;0.70;;
15693;SDS011;7947;48.834;9.132;2023-05-10T04:57:11;0.50;;;0.50;;
15693;SDS011;7947;48.834;9.132;2023-05-10T05:00:14;0.60;;;0.57;;
15693;SDS011;7947;48.834;9.132;2023-05-10T05:03:18;0.32;;;0.30;;
15693;SDS011;7947;48.834;9.132;2023-05-10T05:06:21;0.57;;;0.57;;
15693;SDS011;7947;48.834;9.132;2023-05-10T05:09:27;2.35;;;1.35;;
15693;SDS011;7947;48.834;9.132;2023-05-10T05:12:30;0.88;;;0.88;;
15693;SDS011;7947;48.834;9.132;2023-05-10T05:15:33;1.45;;;0.60;;
15693;SDS011;7947;48.834;9.132;2023-05-10T05:18:35;0.65;;;0.52;;
15693;SDS011;7947;48.834;9.132;2023-05-10T05:21:38;0.85;;;0.80;;
15693;SDS011;7947;48.834;9.132;2023-05-10T05:24:43;0.73;;;0.70;;
15693;SDS011;7947;48.834;9.132;2023-05-10T05:27:46;0.65;;;0.60;;
15693;SDS011;7947;48.834;9.132;2023-05-10T05:30:49;0.80;;;0.80;;
15693;SDS011;7947;48.834;9.132;2023-05-10T05:33:52;1.38;;;0.70;;
15693;SDS011;7947;48.834;9.132;2023-05-10T05:36:54;0.90;;;0.80;;
15693;SDS011;7947;48.834;9.132;2023-05-10T05:39:59;0.82;;;0.68;;
15693;SDS011;7947;48.834;9.132;2023-05-10T05:43:04;0.60;;;0.57;;
15693;SDS011;7947;48.834;9.132;2023-05-10T05:46:07;0.60;;;0.55;;
15693;SDS011;7947;48.834;9.132;2023-05-10T05:49:10;0.68;;;0.68;;
15693;SDS011;7947;48.834;9.132;2023-05-10T05:52:13;0.60;;;0.55;;
15693;SDS011;7947;48.834;9.132;2023-05-10T05:55:17;1.05;;;0.80;;
15693;SDS011;7947;48.834;9.132;2023-05-10T05:58:20;0.40;;;0.40;;
15693;SDS011;7947;48.834;9.132;2023-05-10T06:01:23;0.68;;;0.65;;
15693;SDS011;7947;48.834;9.132;2023-05-10T06:04:26;1.08;;;0.68;;
15693;SDS011;7947;48.834;9.132;2023-05-10T06:07:29;2.22;;;0.85;;
15693;SDS011;7947;48.834;9.132;2023-05-10T06:10:33;0.70;;;0.70;;
15693;SDS011;7947;48.834;9.132;2023-05-10T06:13:35;1.10;;;0.85;;
15693;SDS011;7947;48.834;9.132;2023-05-10T06:16:38;0.80;;;0.80;;
15693;SDS011;7947;48.834;9.132;2023-05-10T06:19:41;1.30;;;0.90;;
15693;SDS011;7947;48.834;9.132;2023-05-10T06:22:44;1.35;;;0.80;;
15693;SDS011;7947;48.834;9.132;2023-05-10T06:25:48;2.90;;;0.98;;
15693;SDS011;7947;48.834;9.132;2023-05-10T06:28:51;0.77;;;0.77;;
15693;SDS011;7947;48.834;9.132;2023-05-10T06:31:54;3.22;;;0.77;;
15693;SDS011;7947;48.834;9.132;2023-05-10T06:34:56;1.25;;;0.70;;
15693;SDS011;7947;48.834;9.132;2023-05-10T06:37:59;1.20;;;0.90;;
15693;SDS011;7947;48.834;9.132;2023-05-10T06:41:03;0.93;;;0.90;;
15693;SDS011;7947;48.834;9.132;2023-05-10T06:44:06;0.63;;;0.63;;
15693;SDS011;7947;48.834;9.132;2023-05-10T06:47:09;2.55;;;0.75;;
15693;SDS011;7947;48.834;9.132;2023-05-10T06:50:12;1.08;;;0.70;;
15693;SDS011;7947;48.834;9.132;2023-05-10T06:53:15;0.70;;;0.70;;
15693;SDS011;7947;48.834;9.132;2023-05-10T06:56:19;0.95;;;0.90;;
15693;SDS011;7947;48.834;9.132;2023-05-10T06:59:22;1.63;;;0.50;;
15693;SDS011;7947;48.834;9.132;2023-05-10T07:02:25;0.65;;;0.55;;
15693;SDS011;7947;48.834;9.132;2023-05-10T07:05:28;1.02;;;0.80;;
15693;SDS011;7947;48.834;9.132;2023-05-10T07:08:31;1.10;;;0.68;;
15693;SDS011;7947;48.834;9.132;2023-05-10T07:11:35;0.60;;;0.50;;
15693;SDS011;7947;48.834;9.132;2023-05-10T07:14:39;2.05;;;0.70;;
15693;SDS011;7947;48.834;9.132;2023-05-10T07:17:41;0.98;;;0.80;;
15693;SDS011;7947;48.834;9.132;2023-05-10T07:20:46;0.90;;;0.70;;
15693;SDS011;7947;48.834;9.132;2023-05-10T07:23:49;1.02;;;0.65;;
15693;SDS011;7947;48.834;9.132;2023-05-10T07:26:54;0.77;;;0.57;;
15693;SDS011;7947;48.834;9.132;2023-05-10T07:29:56;1.02;;;0.50;;
15693;SDS011;7947;48.834;9.132;2023-05-10T07:32:59;0.68;;;0.57;;
15693;SDS011;7947;48.834;9.132;2023-05-10T07:36:02;0.98;;;0.68;;
15693;SDS011;7947;48.834;9.132;2023-05-10T07:39:05;1.88;;;0.73;;
15693;SDS011;7947;48.834;9.132;2023-05-10T07:42:10;0.80;;;0.50;;
15693;SDS011;7947;48.834;9.132;2023-05-10T07:45:13;0.70;;;0.60;;
15693;SDS011;7947;48.834;9.132;2023-05-10T07:48:16;0.82;;;0.52;;
15693;SDS011;7947;48.834;9.132;2023-05-10T07:51:19;1.80;;;0.55;;
15693;SDS011;7947;48.834;9.132;2023-05-10T07:54:22;0.50;;;0.50;;
15693;SDS011;7947;48.834;9.132;2023-05-10T07:57:26;0.82;;;0.40;;
15693;SDS011;7947;48.834;9.132;2023-05-10T08:00:29;0.40;;;0.40;;
15693;SDS011;7947;48.834;9.132;2023-05-10T08:03:32;1.00;;;0.57;;
15693;SDS011;7947;48.834;9.132;2023-05-10T08:06:35;0.95;;;0.57;;
15693;SDS011;7947;48.834;9.132;2023-05-10T08:09:38;1.00;;;0.60;;
15693;SDS011;7947;48.834;9.132;2023-05-10T08:12:42;1.02;;;0.50;;
15693;SDS011;7947;48.834;9.132;2023-05-10T08:15:44;1.33;;;0.65;;
15693;SDS011;7947;48.834;9.132;2023-05-10T08:18:48;0.75;;;0.60;;
15693;SDS011;7947;48.834;9.132;2023-05-10T08:21:52;2.53;;;0.60;;
15693;SDS011;7947;48.834;9.132;2023-05-10T08:24:56;0.98;;;0.50;;
15693;SDS011;7947;48.834;9.132;2023-05-10T08:28:00;0.82;;;0.40;;
15693;SDS011;7947;48.834;9.132;2023-05-10T08:31:04;0.30;;;0.30;;
15693;SDS011;7947;48.834;9.132;2023-05-10T08:34:07;0.43;;;0.30;;
15693;SDS011;7947;48.834;9.132;2023-05-10T08:37:10;0.30;;;0.30;;
15693;SDS011;7947;48.834;9.132;2023-05-10T08:40:14;0.20;;;0.20;;
15693;SDS011;7947;48.834;9.132;2023-05-10T08:43:19;1.55;;;0.50;;
15693;SDS011;7947;48.834;9.132;2023-05-10T08:46:22;0.30;;;0.20;;
15693;SDS011;7947;48.834;9.132;2023-05-10T08:49:25;0.65;;;0.47;;
15693;SDS011;7947;48.834;9.132;2023-05-10T08:52:29;0.43;;;0.40;;
15693;SDS011;7947;48.834;9.132;2023-05-10T08:55:35;1.75;;;0.30;;
15693;SDS011;7947;48.834;9.132;2023-05-10T08:58:41;0.40;;;0.40;;
15693;SDS011;7947;48.834;9.132;2023-05-10T09:01:44;0.10;;;0.10;;
15693;SDS011;7947;48.834;9.132;2023-05-10T09:04:49;0.20;;;0.20;;
15693;SDS011;7947;48.834;9.132;2023-05-10T09:07:52;0.52;;;0.30;;
15693;SDS011;7947;48.834;9.132;2023-05-10T09:10:55;0.82;;;0.40;;
15693;SDS011;7947;48.834;9.132;2023-05-10T09:14:00;0.28;;;0.28;;
15693;SDS011;7947;48.834;9.132;2023-05-10T09:17:03;0.22;;;0.20;;
15693;SDS011;7947;48.834;9.132;2023-05-10T09:20:07;0.20;;;0.20;;
15693;SDS011;7947;48.834;9.132;2023-05-10T09:23:10;0.55;;;0.35;;
15693;SDS011;7947;48.834;9.132;2023-05-10T09:26:13;0.10;;;0.10;;
15693;SDS011;7947;48.834;9.132;2023-05-10T09:29:17;0.43;;;0.30;;
15693;SDS011;7947;48.834;9.132;2023-05-10T09:32:20;0.40;;;0.28;;
15693;SDS011;7947;48.834;9.132;2023-05-10T09:35:24;0.17;;;0.17;;
15693;SDS011;7947;48.834;9.132;2023-05-10T09:38:30;0.35;;;0.20;;
15693;SDS011;7947;48.834;9.132;2023-05-10T09:41:47;0.32;;;0.30;;
15693;SDS011;7947;48.834;9.132;2023-05-10T09:44:52;0.75;;;0.30;;
15693;SDS011;7947;48.834;9.132;2023-05-10T09:47:54;0.40;;;0.20;;
15693;SDS011;7947;48.834;9.132;2023-05-10T09:50:57;0.73;;;0.28;;
15693;SDS011;7947;48.834;9.132;2023-05-10T09:54:10;0.40;;;0.40;;
15693;SDS011;7947;48.834;9.132;2023-05-10T09:57:18;0.57;;;0.40;;
15693;SDS011;7947;48.834;9.132;2023-05-10T10:00:24;0.47;;;0.30;;
15693;SDS011;7947;48.834;9.132;2023-05-10T10:03:28;0.80;;;0.47;;
15693;SDS011;7947;48.834;9.132;2023-05-10T10:06:35;0.95;;;0.30;;
15693;SDS011;7947;48.834;9.132;2023-05-10T10:09:39;0.30;;;0.30;;
15693;SDS011;7947;48.834;9.132;2023-05-10T10:12:42;1.63;;;0.40;;
15693;SDS011;7947;48.834;9.132;2023-05-10T10:15:47;0.50;;;0.30;;
15693;SDS011;7947;48.834;9.132;2023-05-10T10:18:52;0.10;;;0.10;;
15693;SDS011;7947;48.834;9.132;2023-05-10T10:21:55;0.40;;;0.30;;
15693;SDS011;7947;48.834;9.132;2023-05-10T10:24:58;2.28;;;0.32;;
15693;SDS011;7947;48.834;9.132;2023-05-10T10:28:06;0.25;;;0.22;;
15693;SDS011;7947;48.834;9.132;2023-05-10T10:31:23;0.50;;;0.22;;
15693;SDS011;7947;48.834;9.132;2023-05-10T10:34:31;1.38;;;0.52;;
15693;SDS011;7947;48.834;9.132;2023-05-10T10:37:41;1.60;;;0.40;;
15693;SDS011;7947;48.834;9.132;2023-05-10T10:40:46;0.40;;;0.20;;
15693;SDS011;7947;48.834;9.132;2023-05-10T10:43:49;0.20;;;0.20;;
15693;SDS011;7947;48.834;9.132;2023-05-10T10:47:36;0.20;;;0.20;;
15693;SDS011;7947;48.834;9.132;2023-05-10T10:50:45;0.40;;;0.25;;
15693;SDS011;7947;48.834;9.132;2023-05-10T10:53:48;0.20;;;0.20;;
15693;SDS011;7947;48.834;9.132;2023-05-10T11:03:38;0.35;;;0.25;;
15693;SDS011;7947;48.834;9.132;2023-05-10T11:06:41;0.40;;;0.40;;
15693;SDS011;7947;48.834;9.132;2023-05-10T11:09:44;0.20;;;0.20;;
15693;SDS011;7947;48.834;9.132;2023-05-10T11:12:52;0.35;;;0.20;;
15693;SDS011;7947;48.834;9.132;2023-05-10T11:15:58;0.30;;;0.30;;
15693;SDS011;7947;48.834;9.132;2023-05-10T11:19:12;0.35;;;0.30;;
15693;SDS011;7947;48.834;9.132;2023-05-10T11:22:15;0.38;;;0.28;;
15693;SDS011;7947;48.834;9.132;2023-05-10T11:25:19;0.52;;;0.50;;
15693;SDS011;7947;48.834;9.132;2023-05-10T11:28:22;0.85;;;0.47;;
15693;SDS011;7947;48.834;9.132;2023-05-10T11:31:26;0.55;;;0.30;;
15693;SDS011;7947;48.834;9.132;2023-05-10T11:34:31;2.30;;;0.40;;
15693;SDS011;7947;48.834;9.132;2023-05-10T11:37:35;0.47;;;0.40;;
15693;SDS011;7947;48.834;9.132;2023-05-10T11:40:39;2.35;;;0.43;;
15693;SDS011;7947;48.834;9.132;2023-05-10T11:43:42;0.38;;;0.30;;
15693;SDS011;7947;48.834;9.132;2023-05-10T11:46:51;0.38;;;0.30;;
15693;SDS011;7947;48.834;9.132;2023-05-10T11:49:54;0.63;;;0.40;;
15693;SDS011;7947;48.834;9.132;2023-05-10T11:52:57;0.40;;;0.40;;
15693;SDS011;7947;48.834;9.132;2023-05-10T11:56:04;0.30;;;0.30;;
15693;SDS011;7947;48.834;9.132;2023-05-10T11:59:07;0.82;;;0.40;;
15693;SDS011;7947;48.834;9.132;2023-05-10T12:02:12;2.30;;;0.50;;
15693;SDS011;7947;48.834;9.132;2023-05-10T12:05:15;0.50;;;0.40;;
15693;SDS011;7947;48.834;9.132;2023-05-10T12:08:20;0.93;;;0.55;;
15693;SDS011;7947;48.834;9.132;2023-05-10T12:11:24;0.38;;;0.38;;
15693;SDS011;7947;48.834;9.132;2023-05-10T12:14:28;1.50;;;0.65;;
15693;SDS011;7947;48.834;9.132;2023-05-10T12:17:36;0.68;;;0.40;;
15693;SDS011;7947;48.834;9.132;2023-05-10T12:20:42;2.08;;;0.60;;
15693;SDS011;7947;48.834;9.132;2023-05-10T12:23:45;1.10;;;0.40;;
15693;SDS011;7947;48.834;9.132;2023-05-10T12:26:49;0.65;;;0.40;;
15693;SDS011;7947;48.834;9.132;2023-05-10T12:29:52;1.60;;;0.80;;
15693;SDS011;7947;48.834;9.132;2023-05-10T12:33:00;1.50;;;0.80;;
15693;SDS011;7947;48.834;9.132;2023-05-10T12:36:05;0.80;;;0.30;;
15693;SDS011;7947;48.834;9.132;2023-05-10T12:39:08;0.20;;;0.17;;
15693;SDS011;7947;48.834;9.132;2023-05-10T12:42:11;0.77;;;0.35;;
15693;SDS011;7947;48.834;9.132;2023-05-10T12:45:14;0.50;;;0.40;;
15693;SDS011;7947;48.834;9.132;2023-05-10T12:48:18;1.10;;;0.60;;
15693;SDS011;7947;48.834;9.132;2023-05-10T12:51:21;1.50;;;0.30;;
15693;SDS011;7947;48.834;9.132;2023-05-10T12:54:24;0.82;;;0.40;;
15693;SDS011;7947;48.834;9.132;2023-05-10T12:57:27;0.55;;;0.35;;
15693;SDS011;7947;48.834;9.132;2023-05-10T13:00:30;1.15;;;0.40;;
15693;SDS011;7947;48.834;9.132;2023-05-10T13:03:34;3.70;;;0.98;;
15693;SDS011;7947;48.834;9.132;2023-05-10T13:06:36;0.57;;;0.40;;
15693;SDS011;7947;48.834;9.132;2023-05-10T13:09:39;0.68;;;0.30;;
15693;SDS011;7947;48.834;9.132;2023-05-10T13:12:42;0.80;;;0.50;;
15693;SDS011;7947;48.834;9.132;2023-05-10T13:15:45;1.05;;;0.50;;
15693;SDS011;7947;48.834;9.132;2023-05-10T13:18:49;1.00;;;0.40;;
15693;SDS011;7947;48.834;9.132;2023-05-10T13:21:52;0.65;;;0.45;;
15693;SDS011;7947;48.834;9.132;2023-05-10T13:24:54;2.65;;;0.60;;
15693;SDS011;7947;48.834;9.132;2023-05-10T13:27:57;1.45;;;0.65;;
15693;SDS011;7947;48.834;9.132;2023-05-10T13:31:00;0.57;;;0.28;;
15693;SDS011;7947;48.834;9.132;2023-05-10T13:34:04;1.77;;;0.40;;
15693;SDS011;7947;48.834;9.132;2023-05-10T13:37:07;0.50;;;0.50;;
15693;SDS011;7947;48.834;9.132;2023-05-10T13:40:10;0.40;;;0.30;;
15693;SDS011;7947;48.834;9.132;2023-05-10T13:43:13;2.00;;;0.70;;
15693;SDS011;7947;48.834;9.132;2023-05-10T13:46:16;2.67;;;0.60;;
15693;SDS011;7947;48.834;9.132;2023-05-10T13:49:21;0.95;;;0.30;;
15693;SDS011;7947;48.834;9.132;2023-05-10T13:52:24;1.33;;;0.40;;
15693;SDS011;7947;48.834;9.132;2023-05-10T13:55:26;1.10;;;0.50;;
15693;SDS011;7947;48.834;9.132;2023-05-10T13:58:29;0.77;;;0.38;;
15693;SDS011;7947;48.834;9.132;2023-05-10T14:01:32;0.82;;;0.43;;
15693;SDS011;7947;48.834;9.132;2023-05-10T14:04:36;0.47;;;0.30;;
15693;SDS011;7947;48.834;9.132;2023-05-10T14:07:39;0.68;;;0.30;;
15693;SDS011;7947;48.834;9.132;2023-05-10T14:10:42;0.85;;;0.40;;
15693;SDS011;7947;48.834;9.132;2023-05-10T14:13:45;0.57;;;0.38;;
15693;SDS011;7947;48.834;9.132;2023-05-10T14:16:48;0.85;;;0.85;;
15693;SDS011;7947;48.834;9.132;2023-05-10T14:19:52;1.08;;;0.40;;
15693;SDS011;7947;48.834;9.132;2023-05-10T14:22:55;0.77;;;0.43;;
15693;SDS011;7947;48.834;9.132;2023-05-10T14:25:58;1.25;;;0.25;;
15693;SDS011;7947;48.834;9.132;2023-05-10T14:29:00;0.65;;;0.40;;
15693;SDS011;7947;48.834;9.132;2023-05-10T14:32:03;2.08;;;0.30;;
15693;SDS011;7947;48.834;9.132;2023-05-10T14:35:08;0.10;;;0.10;;
15693;SDS011;7947;48.834;9.132;2023-05-10T14:38:13;1.38;;;0.40;;
15693;SDS011;7947;48.834;9.132;2023-05-10T14:41:17;1.92;;;0.30;;
15693;SDS011;7947;48.834;9.132;2023-05-10T14:44:20;0.65;;;0.40;;
15693;SDS011;7947;48.834;9.132;2023-05-10T14:47:22;0.98;;;0.40;;
15693;SDS011;7947;48.834;9.132;2023-05-10T14:50:27;0.30;;;0.20;;
15693;SDS011;7947;48.834;9.132;2023-05-10T14:53:37;0.43;;;0.38;;
15693;SDS011;7947;48.834;9.132;2023-05-10T14:56:39;0.60;;;0.40;;
15693;SDS011;7947;48.834;9.132;2023-05-10T14:59:42;0.80;;;0.50;;
15693;SDS011;7947;48.834;9.132;2023-05-10T15:02:46;0.65;;;0.40;;
15693;SDS011;7947;48.834;9.132;2023-05-10T15:05:51;0.57;;;0.55;;
15693;SDS011;7947;48.834;9.132;2023-05-10T15:08:54;0.68;;;0.60;;
15693;SDS011;7947;48.834;9.132;2023-05-10T15:11:57;1.10;;;0.32;;
15693;SDS011;7947;48.834;9.132;2023-05-10T15:14:59;0.98;;;0.50;;
15693;SDS011;7947;48.834;9.132;2023-05-10T15:18:02;0.80;;;0.20;;
15693;SDS011;7947;48.834;9.132;2023-05-10T15:21:07;0.20;;;0.20;;
15693;SDS011;7947;48.834;9.132;2023-05-10T15:24:10;0.82;;;0.30;;
15693;SDS011;7947;48.834;9.132;2023-05-10T15:27:12;0.70;;;0.47;;
15693;SDS011;7947;48.834;9.132;2023-05-10T15:30:15;0.60;;;0.30;;
15693;SDS011;7947;48.834;9.132;2023-05-10T15:33:18;2.35;;;0.47;;
15693;SDS011;7947;48.834;9.132;2023-05-10T15:36:22;0.25;;;0.20;;
15693;SDS011;7947;48.834;9.132;2023-05-10T15:39:24;0.75;;;0.30;;
15693;SDS011;7947;48.834;9.132;2023-05-10T15:42:27;1.02;;;0.40;;
15693;SDS011;7947;48.834;9.132;2023-05-10T15:45:31;0.52;;;0.40;;
15693;SDS011;7947;48.834;9.132;2023-05-10T15:48:37;2.80;;;0.50;;
15693;SDS011;7947;48.834;9.132;2023-05-10T15:51:41;1.15;;;0.30;;
15693;SDS011;7947;48.834;9.132;2023-05-10T15:54:44;0.20;;;0.20;;
15693;SDS011;7947;48.834;9.132;2023-05-10T15:57:47;1.90;;;0.35;;
15693;SDS011;7947;48.834;9.132;2023-05-10T16:00:50;0.28;;;0.20;;
15693;SDS011;7947;48.834;9.132;2023-05-10T16:03:53;0.22;;;0.22;;
15693;SDS011;7947;48.834;9.132;2023-05-10T16:06:57;0.75;;;0.20;;
15693;SDS011;7947;48.834;9.132;2023-05-10T16:10:00;0.40;;;0.30;;
15693;SDS011;7947;48.834;9.132;2023-05-10T16:13:04;0.30;;;0.30;;
15693;SDS011;7947;48.834;9.132;2023-05-10T16:16:07;0.40;;;0.40;;
15693;SDS011;7947;48.834;9.132;2023-05-10T16:19:10;0.25;;;0.20;;
15693;SDS011;7947;48.834;9.132;2023-05-10T16:22:14;0.40;;;0.30;;
15693;SDS011;7947;48.834;9.132;2023-05-10T16:25:17;1.10;;;0.40;;
15693;SDS011;7947;48.834;9.132;2023-05-10T16:28:20;0.52;;;0.30;;
15693;SDS011;7947;48.834;9.132;2023-05-10T16:31:23;0.82;;;0.30;;
15693;SDS011;7947;48.834;9.132;2023-05-10T16:34:26;1.35;;;0.17;;
15693;SDS011;7947;48.834;9.132;2023-05-10T16:37:30;0.63;;;0.30;;
15693;SDS011;7947;48.834;9.132;2023-05-10T16:40:33;0.25;;;0.25;;
15693;SDS011;7947;48.834;9.132;2023-05-10T16:43:35;0.20;;;0.20;;
15693;SDS011;7947;48.834;9.132;2023-05-10T16:46:38;0.60;;;0.22;;
15693;SDS011;7947;48.834;9.132;2023-05-10T16:49:41;1.40;;;0.40;;
15693;SDS011;7947;48.834;9.132;2023-05-10T16:52:45;1.25;;;0.30;;
15693;SDS011;7947;48.834;9.132;2023-05-10T16:55:48;0.63;;;0.32;;
15693;SDS011;7947;48.834;9.132;2023-05-10T16:58:51;0.30;;;0.30;;
15693;SDS011;7947;48.834;9.132;2023-05-10T17:01:54;0.30;;;0.20;;
15693;SDS011;7947;48.834;9.132;2023-05-10T17:04:57;0.52;;;0.30;;
15693;SDS011;7947;48.834;9.132;2023-05-10T17:08:01;0.40;;;0.25;;
15693;SDS011;7947;48.834;9.132;2023-05-10T17:11:04;0.38;;;0.20;;
15693;SDS011;7947;48.834;9.132;2023-05-10T17:14:06;0.35;;;0.30;;
15693;SDS011;7947;48.834;9.132;2023-05-10T17:17:10;0.52;;;0.32;;
15693;SDS011;7947;48.834;9.132;2023-05-10T17:20:13;0.43;;;0.43;;
15693;SDS011;7947;48.834;9.132;2023-05-10T17:23:17;0.57;;;0.35;;
15693;SDS011;7947;48.834;9.132;2023-05-10T17:26:19;1.02;;;0.30;;
15693;SDS011;7947;48.834;9.132;2023-05-10T17:29:22;1.65;;;0.30;;
15693;SDS011;7947;48.834;9.132;2023-05-10T17:32:25;0.20;;;0.20;;
15693;SDS011;7947;48.834;9.132;2023-05-10T17:35:28;0.50;;;0.50;;
15693;SDS011;7947;48.834;9.132;2023-05-10T17:38:33;0.38;;;0.30;;
15693;SDS011;7947;48.834;9.132;2023-05-10T17:41:36;0.50;;;0.45;;
15693;SDS011;7947;48.834;9.132;2023-05-10T17:44:38;0.22;;;0.22;;
15693;SDS011;7947;48.834;9.132;2023-05-10T17:47:41;0.15;;;0.15;;
15693;SDS011;7947;48.834;9.132;2023-05-10T17:50:44;0.20;;;0.20;;
15693;SDS011;7947;48.834;9.132;2023-05-10T17:53:48;1.10;;;0.30;;
15693;SDS011;7947;48.834;9.132;2023-05-10T17:56:51;0.38;;;0.30;;
15693;SDS011;7947;48.834;9.132;2023-05-10T17:59:54;0.50;;;0.40;;
15693;SDS011;7947;48.834;9.132;2023-05-10T18:02:56;0.98;;;0.40;;
15693;SDS011;7947;48.834;9.132;2023-05-10T18:05:59;0.52;;;0.30;;
15693;SDS011;7947;48.834;9.132;2023-05-10T18:09:04;0.30;;;0.20;;
15693;SDS011;7947;48.834;9.132;2023-05-10T18:12:07;0.30;;;0.30;;
15693;SDS011;7947;48.834;9.132;2023-05-10T18:15:10;0.20;;;0.20;;
15693;SDS011;7947;48.834;9.132;2023-05-10T18:18:13;0.30;;;0.25;;
15693;SDS011;7947;48.834;9.132;2023-05-10T18:21:16;2.65;;;0.50;;
15693;SDS011;7947;48.834;9.132;2023-05-10T18:24:20;0.35;;;0.30;;
15693;SDS011;7947;48.834;9.132;2023-05-10T18:27:37;1.38;;;0.40;;
15693;SDS011;7947;48.834;9.132;2023-05-10T18:30:40;0.55;;;0.40;;
15693;SDS011;7947;48.834;9.132;2023-05-10T18:33:43;0.55;;;0.47;;
15693;SDS011;7947;48.834;9.132;2023-05-10T18:36:46;0.40;;;0.30;;
15693;SDS011;7947;48.834;9.132;2023-05-10T18:39:50;1.00;;;0.30;;
15693;SDS011;7947;48.834;9.132;2023-05-10T18:42:53;0.60;;;0.50;;
15693;SDS011;7947;48.834;9.132;2023-05-10T18:45:56;0.80;;;0.63;;
15693;SDS011;7947;48.834;9.132;2023-05-10T18:48:59;0.40;;;0.32;;
15693;SDS011;7947;48.834;9.132;2023-05-10T18:52:02;0.60;;;0.60;;
15693;SDS011;7947;48.834;9.132;2023-05-10T18:55:07;0.32;;;0.32;;